EZY81HM EDDL-LXGB
Flight info
| Callsign | EZY81HM |
|---|---|
| Flight time | 2h 53m |
| Altitude | 38000 |
| Route | MODRU7Z MODRU Z717 MAS UM617 CIV/N0444F390 DCT KOVIN DCT DUCRA UM728 RESMI UN857 DISAK DCT ARKIP DCT ARNAV DCT LMG DCT UVELI DCT OSMOB DCT VAVIX DCT NETUK N857 VASUM DCT BANEV N857 MONTO N864 CRISA DCT VULPE N864 PIMOS |
| Aircraft | A20N/M-SDE2E3FGHIRWXY/LB1 |
Departure
| Time | 2026-05-04 23:31 |
|---|---|
| Airport | Düsseldorf Airport (EDDL) |
Arrival
| Time | 2026-05-05 02:24 |
|---|---|
| Airport | Gibraltar Airport (LXGB) |
| Time | Latitude | Longitude | Altitude | Speed | Heading |
|---|---|---|---|---|---|
| 2026-05-04 22:58 | 51.27594 | 6.75729 | 137 ft | 0 kts | 243° |
| 2026-05-04 23:19 | 51.27597 | 6.75737 | 137 ft | 4 kts | 244° |
| 2026-05-04 23:19 | 51.27606 | 6.75777 | 137 ft | 4 kts | 261° |
| 2026-05-04 23:19 | 51.27606 | 6.75819 | 137 ft | 4 kts | 290° |
| 2026-05-04 23:19 | 51.27594 | 6.75847 | 137 ft | 1 kts | 333° |
| 2026-05-04 23:20 | 51.27590 | 6.75850 | 137 ft | 0 kts | 333° |
| 2026-05-04 23:24 | 51.27594 | 6.75847 | 137 ft | 3 kts | 331° |
| 2026-05-04 23:24 | 51.27642 | 6.75815 | 137 ft | 12 kts | 346° |
| 2026-05-04 23:25 | 51.27746 | 6.75812 | 137 ft | 17 kts | 1° |
| 2026-05-04 23:25 | 51.27841 | 6.75799 | 137 ft | 13 kts | 327° |
| 2026-05-04 23:25 | 51.27866 | 6.75653 | 136 ft | 15 kts | 293° |
| 2026-05-04 23:25 | 51.27894 | 6.75600 | 136 ft | 0 kts | 323° |
| 2026-05-04 23:26 | 51.27910 | 6.75590 | 136 ft | 8 kts | 337° |
| 2026-05-04 23:26 | 51.27945 | 6.75565 | 136 ft | 0 kts | 335° |
| 2026-05-04 23:28 | 51.27951 | 6.75561 | 136 ft | 3 kts | 335° |
| 2026-05-04 23:28 | 51.28003 | 6.75524 | 134 ft | 14 kts | 336° |
| 2026-05-04 23:28 | 51.28041 | 6.75503 | 132 ft | 7 kts | 347° |
| 2026-05-04 23:29 | 51.28088 | 6.75506 | 132 ft | 8 kts | 16° |
| 2026-05-04 23:29 | 51.28136 | 6.75567 | 132 ft | 9 kts | 51° |
| 2026-05-04 23:29 | 51.28142 | 6.75580 | 132 ft | 0 kts | 52° |
| 2026-05-04 23:30 | 51.28146 | 6.75588 | 132 ft | 9 kts | 53° |
| 2026-05-04 23:30 | 51.28360 | 6.76040 | 133 ft | 91 kts | 53° |
| 2026-05-04 23:30 | 51.28884 | 6.77136 | 132 ft | 154 kts | 52° |
| 2026-05-04 23:30 | 51.29590 | 6.78616 | 627 ft | 165 kts | 52° |
| 2026-05-04 23:31 | 51.30294 | 6.80084 | 1432 ft | 171 kts | 52° |
| 2026-05-04 23:31 | 51.31040 | 6.81635 | 2067 ft | 184 kts | 52° |
| 2026-05-04 23:31 | 51.31855 | 6.83351 | 2613 ft | 203 kts | 52° |
| 2026-05-04 23:31 | 51.32736 | 6.85222 | 3168 ft | 222 kts | 52° |
| 2026-05-04 23:32 | 51.33706 | 6.87300 | 3706 ft | 242 kts | 53° |
| 2026-05-04 23:32 | 51.34807 | 6.89449 | 4344 ft | 255 kts | 39° |
| 2026-05-04 23:32 | 51.36361 | 6.90770 | 5227 ft | 255 kts | 12° |
| 2026-05-04 23:32 | 51.38116 | 6.91276 | 6074 ft | 259 kts | 7° |
| 2026-05-04 23:33 | 51.39915 | 6.91739 | 6910 ft | 263 kts | 7° |
| 2026-05-04 23:33 | 51.41740 | 6.92210 | 7711 ft | 268 kts | 7° |
| 2026-05-04 23:33 | 51.43593 | 6.92697 | 8516 ft | 273 kts | 7° |
| 2026-05-04 23:33 | 51.45485 | 6.93201 | 9314 ft | 278 kts | 7° |
| 2026-05-04 23:34 | 51.47416 | 6.93444 | 10077 ft | 279 kts | 349° |
| 2026-05-04 23:34 | 51.49221 | 6.92451 | 10842 ft | 274 kts | 323° |
| 2026-05-04 23:34 | 51.50570 | 6.90369 | 11583 ft | 269 kts | 298° |
| 2026-05-04 23:34 | 51.51334 | 6.87652 | 12310 ft | 269 kts | 287° |
| 2026-05-04 23:35 | 51.51995 | 6.84814 | 13057 ft | 272 kts | 287° |
| 2026-05-04 23:35 | 51.52666 | 6.81956 | 13786 ft | 276 kts | 288° |
| 2026-05-04 23:35 | 51.53353 | 6.79056 | 14435 ft | 279 kts | 288° |
| 2026-05-04 23:35 | 51.54049 | 6.76139 | 15093 ft | 281 kts | 288° |
| 2026-05-04 23:36 | 51.54738 | 6.73262 | 15811 ft | 275 kts | 288° |
| 2026-05-04 23:36 | 51.55391 | 6.70562 | 16584 ft | 248 kts | 287° |
| 2026-05-04 23:36 | 51.55790 | 6.67800 | 16655 ft | 264 kts | 267° |
| 2026-05-04 23:36 | 51.55487 | 6.64823 | 16844 ft | 281 kts | 246° |
| 2026-05-04 23:37 | 51.54582 | 6.61913 | 17038 ft | 302 kts | 240° |
| 2026-05-04 23:37 | 51.53563 | 6.58828 | 17227 ft | 323 kts | 241° |
| 2026-05-04 23:37 | 51.52485 | 6.55535 | 17422 ft | 343 kts | 241° |
| 2026-05-04 23:37 | 51.51354 | 6.52054 | 17702 ft | 358 kts | 241° |
| 2026-05-04 23:38 | 51.50197 | 6.48476 | 18360 ft | 362 kts | 241° |
| 2026-05-04 23:38 | 51.49036 | 6.44877 | 18998 ft | 364 kts | 241° |
| 2026-05-04 23:38 | 51.47866 | 6.41259 | 19645 ft | 367 kts | 241° |
| 2026-05-04 23:38 | 51.46554 | 6.37732 | 20278 ft | 368 kts | 231° |
| 2026-05-04 23:39 | 51.44747 | 6.34845 | 20766 ft | 371 kts | 217° |
| 2026-05-04 23:39 | 51.42502 | 6.32806 | 20919 ft | 373 kts | 202° |
| 2026-05-04 23:39 | 51.40064 | 6.31381 | 20937 ft | 373 kts | 201° |
| 2026-05-04 23:39 | 51.37618 | 6.29970 | 20948 ft | 373 kts | 201° |
| 2026-05-04 23:40 | 51.35207 | 6.28569 | 20941 ft | 373 kts | 201° |
| 2026-05-04 23:40 | 51.32764 | 6.27140 | 20946 ft | 373 kts | 201° |
| 2026-05-04 23:40 | 51.30298 | 6.25692 | 20948 ft | 373 kts | 201° |
| 2026-05-04 23:40 | 51.27862 | 6.24261 | 20941 ft | 373 kts | 201° |
| 2026-05-04 23:41 | 51.25454 | 6.22848 | 20938 ft | 373 kts | 201° |
| 2026-05-04 23:41 | 51.23012 | 6.21415 | 20939 ft | 374 kts | 201° |
| 2026-05-04 23:41 | 51.20573 | 6.19987 | 20940 ft | 374 kts | 201° |
| 2026-05-04 23:41 | 51.18133 | 6.18560 | 20941 ft | 373 kts | 201° |
| 2026-05-04 23:42 | 51.15692 | 6.17134 | 20948 ft | 374 kts | 201° |
| 2026-05-04 23:42 | 51.13242 | 6.15704 | 21155 ft | 378 kts | 201° |
| 2026-05-04 23:42 | 51.10771 | 6.14265 | 21877 ft | 377 kts | 201° |
| 2026-05-04 23:42 | 51.08300 | 6.12827 | 22525 ft | 379 kts | 201° |
| 2026-05-04 23:43 | 51.05811 | 6.11380 | 23118 ft | 382 kts | 201° |
| 2026-05-04 23:43 | 51.03414 | 6.09562 | 23661 ft | 383 kts | 214° |
| 2026-05-04 23:43 | 51.01358 | 6.06877 | 24155 ft | 384 kts | 227° |
| 2026-05-04 23:43 | 50.99763 | 6.03467 | 24640 ft | 387 kts | 239° |
| 2026-05-04 23:44 | 50.98456 | 5.99716 | 25121 ft | 390 kts | 240° |
| 2026-05-04 23:44 | 50.97213 | 5.95866 | 25558 ft | 394 kts | 246° |
| 2026-05-04 23:44 | 50.96305 | 5.91746 | 26042 ft | 397 kts | 251° |
| 2026-05-04 23:44 | 50.95560 | 5.87518 | 26485 ft | 400 kts | 253° |
| 2026-05-04 23:45 | 50.94849 | 5.83236 | 26919 ft | 402 kts | 253° |
| 2026-05-04 23:45 | 50.94125 | 5.78933 | 27332 ft | 405 kts | 253° |
| 2026-05-04 23:45 | 50.93388 | 5.74665 | 27740 ft | 407 kts | 252° |
| 2026-05-04 23:45 | 50.92623 | 5.70327 | 28137 ft | 410 kts | 252° |
| 2026-05-04 23:46 | 50.91846 | 5.65968 | 28518 ft | 413 kts | 252° |
| 2026-05-04 23:46 | 50.91057 | 5.61575 | 28862 ft | 416 kts | 252° |
| 2026-05-04 23:46 | 50.90261 | 5.57154 | 29240 ft | 418 kts | 252° |
| 2026-05-04 23:46 | 50.89462 | 5.52722 | 29603 ft | 420 kts | 252° |
| 2026-05-04 23:47 | 50.88656 | 5.48267 | 29963 ft | 422 kts | 252° |
| 2026-05-04 23:47 | 50.87843 | 5.43784 | 30238 ft | 425 kts | 252° |
| 2026-05-04 23:47 | 50.87024 | 5.39273 | 30561 ft | 427 kts | 252° |
| 2026-05-04 23:47 | 50.86200 | 5.34747 | 30874 ft | 429 kts | 252° |
| 2026-05-04 23:48 | 50.85371 | 5.30207 | 31216 ft | 430 kts | 252° |
| 2026-05-04 23:48 | 50.84538 | 5.25660 | 31595 ft | 430 kts | 252° |
| 2026-05-04 23:48 | 50.83707 | 5.21126 | 32014 ft | 428 kts | 252° |
| 2026-05-04 23:48 | 50.82876 | 5.16611 | 32436 ft | 427 kts | 252° |
| 2026-05-04 23:49 | 50.82045 | 5.12103 | 32844 ft | 426 kts | 252° |
| 2026-05-04 23:49 | 50.81215 | 5.07612 | 33218 ft | 425 kts | 252° |
| 2026-05-04 23:49 | 50.80385 | 5.03134 | 33615 ft | 424 kts | 252° |
| 2026-05-04 23:49 | 50.79566 | 4.98722 | 33989 ft | 423 kts | 252° |
| 2026-05-04 23:50 | 50.78737 | 4.94273 | 34278 ft | 423 kts | 252° |
| 2026-05-04 23:50 | 50.77904 | 4.89816 | 34508 ft | 423 kts | 252° |
| 2026-05-04 23:50 | 50.77108 | 4.85563 | 34748 ft | 424 kts | 252° |
| 2026-05-04 23:50 | 50.76269 | 4.81092 | 34989 ft | 424 kts | 252° |
| 2026-05-04 23:51 | 50.75431 | 4.76631 | 35231 ft | 425 kts | 252° |
| 2026-05-04 23:51 | 50.74587 | 4.72158 | 35440 ft | 425 kts | 252° |
| 2026-05-04 23:51 | 50.73742 | 4.67682 | 35671 ft | 426 kts | 252° |
| 2026-05-04 23:51 | 50.72894 | 4.63205 | 35907 ft | 426 kts | 251° |
| 2026-05-04 23:52 | 50.72043 | 4.58723 | 36115 ft | 426 kts | 251° |
| 2026-05-04 23:52 | 50.71190 | 4.54245 | 36307 ft | 427 kts | 251° |
| 2026-05-04 23:52 | 50.70330 | 4.49745 | 36513 ft | 427 kts | 251° |
| 2026-05-04 23:52 | 50.69472 | 4.45265 | 36728 ft | 428 kts | 251° |
| 2026-05-04 23:53 | 50.68610 | 4.40774 | 36921 ft | 428 kts | 251° |
| 2026-05-04 23:53 | 50.67743 | 4.36271 | 37106 ft | 429 kts | 251° |
| 2026-05-04 23:53 | 50.66877 | 4.31782 | 37295 ft | 429 kts | 251° |
| 2026-05-04 23:53 | 50.66006 | 4.27275 | 37471 ft | 429 kts | 251° |
| 2026-05-04 23:54 | 50.65135 | 4.22779 | 37643 ft | 430 kts | 251° |
| 2026-05-04 23:54 | 50.64270 | 4.18324 | 37813 ft | 430 kts | 251° |
| 2026-05-04 23:54 | 50.63392 | 4.13817 | 37942 ft | 431 kts | 251° |
| 2026-05-04 23:54 | 50.62513 | 4.09312 | 37956 ft | 430 kts | 251° |
| 2026-05-04 23:55 | 50.60755 | 4.00330 | 37964 ft | 430 kts | 251° |
| 2026-05-04 23:55 | 50.58713 | 3.91511 | 37958 ft | 428 kts | 240° |
| 2026-05-04 23:56 | 50.57143 | 3.87549 | 37963 ft | 426 kts | 232° |
| 2026-05-04 23:56 | 50.52953 | 3.81020 | 37960 ft | 426 kts | 215° |
| 2026-05-04 23:57 | 50.47726 | 3.76701 | 37956 ft | 426 kts | 204° |
| 2026-05-04 23:57 | 50.42276 | 3.72997 | 37972 ft | 427 kts | 204° |
| 2026-05-04 23:58 | 50.36823 | 3.69284 | 37982 ft | 428 kts | 204° |
| 2026-05-04 23:58 | 50.31352 | 3.65576 | 37954 ft | 427 kts | 204° |
| 2026-05-04 23:59 | 50.25907 | 3.61899 | 37951 ft | 426 kts | 204° |
| 2026-05-04 23:59 | 50.20494 | 3.58252 | 37947 ft | 426 kts | 204° |
| 2026-05-05 00:00 | 50.15049 | 3.54593 | 37952 ft | 426 kts | 204° |
| 2026-05-05 00:00 | 50.09594 | 3.50936 | 37945 ft | 426 kts | 204° |
| 2026-05-05 00:01 | 50.04145 | 3.47292 | 37943 ft | 426 kts | 204° |
| 2026-05-05 00:01 | 49.98703 | 3.43662 | 37938 ft | 426 kts | 203° |
| 2026-05-05 00:02 | 49.93254 | 3.40036 | 37935 ft | 426 kts | 203° |
| 2026-05-05 00:02 | 49.87812 | 3.36424 | 37928 ft | 425 kts | 203° |
| 2026-05-05 00:03 | 49.83283 | 3.33424 | 37931 ft | 425 kts | 203° |
| 2026-05-05 00:03 | 49.77843 | 3.29830 | 37927 ft | 425 kts | 203° |
| 2026-05-05 00:04 | 49.71507 | 3.25654 | 37931 ft | 425 kts | 203° |
| 2026-05-05 00:04 | 49.66950 | 3.22658 | 37942 ft | 425 kts | 203° |
| 2026-05-05 00:05 | 49.61510 | 3.19090 | 37942 ft | 424 kts | 203° |
| 2026-05-05 00:05 | 49.55196 | 3.14959 | 37935 ft | 424 kts | 203° |
| 2026-05-05 00:06 | 49.50685 | 3.12001 | 37935 ft | 423 kts | 204° |
| 2026-05-05 00:06 | 49.45539 | 3.07617 | 37934 ft | 424 kts | 213° |
| 2026-05-05 00:07 | 49.40631 | 3.02575 | 37932 ft | 424 kts | 213° |
| 2026-05-05 00:07 | 49.35723 | 2.97574 | 37936 ft | 424 kts | 213° |
| 2026-05-05 00:08 | 49.30800 | 2.92590 | 37934 ft | 424 kts | 213° |
| 2026-05-05 00:08 | 49.25876 | 2.87621 | 37946 ft | 424 kts | 212° |
| 2026-05-05 00:09 | 49.23832 | 2.85561 | 37939 ft | 424 kts | 212° |
| 2026-05-05 00:09 | 49.19755 | 2.81459 | 37927 ft | 424 kts | 212° |
| 2026-05-05 00:10 | 49.14827 | 2.76511 | 37919 ft | 423 kts | 212° |
| 2026-05-05 00:10 | 49.09899 | 2.71576 | 37918 ft | 423 kts | 212° |
| 2026-05-05 00:11 | 49.04975 | 2.66656 | 37917 ft | 423 kts | 212° |
| 2026-05-05 00:11 | 49.00055 | 2.61752 | 37910 ft | 423 kts | 212° |
| 2026-05-05 00:12 | 48.95127 | 2.56852 | 37906 ft | 423 kts | 212° |
| 2026-05-05 00:12 | 48.90200 | 2.51964 | 37901 ft | 423 kts | 212° |
| 2026-05-05 00:13 | 48.85269 | 2.47084 | 37897 ft | 423 kts | 212° |
| 2026-05-05 00:13 | 48.80369 | 2.42247 | 37905 ft | 423 kts | 212° |
| 2026-05-05 00:14 | 48.75431 | 2.37383 | 37903 ft | 424 kts | 212° |
| 2026-05-05 00:14 | 48.70483 | 2.32521 | 37905 ft | 424 kts | 212° |
| 2026-05-05 00:15 | 48.65534 | 2.27670 | 37906 ft | 424 kts | 212° |
| 2026-05-05 00:15 | 48.60544 | 2.22886 | 37909 ft | 424 kts | 208° |
| 2026-05-05 00:16 | 48.55195 | 2.19135 | 37906 ft | 424 kts | 199° |
| 2026-05-05 00:16 | 48.49527 | 2.16772 | 37907 ft | 424 kts | 191° |
| 2026-05-05 00:17 | 48.43744 | 2.14948 | 37912 ft | 424 kts | 192° |
| 2026-05-05 00:17 | 48.37972 | 2.13095 | 37911 ft | 425 kts | 192° |
| 2026-05-05 00:18 | 48.32175 | 2.11351 | 37915 ft | 425 kts | 188° |
| 2026-05-05 00:18 | 48.26278 | 2.10781 | 37913 ft | 425 kts | 179° |
| 2026-05-05 00:19 | 48.20386 | 2.11620 | 37908 ft | 426 kts | 172° |
| 2026-05-05 00:19 | 48.14505 | 2.12650 | 37903 ft | 425 kts | 178° |
| 2026-05-05 00:20 | 48.08602 | 2.12326 | 37913 ft | 425 kts | 187° |
| 2026-05-05 00:20 | 48.02737 | 2.11155 | 37914 ft | 425 kts | 187° |
| 2026-05-05 00:21 | 47.96874 | 2.10013 | 37911 ft | 425 kts | 187° |
| 2026-05-05 00:21 | 47.91049 | 2.08898 | 37915 ft | 425 kts | 187° |
| 2026-05-05 00:22 | 47.85180 | 2.07781 | 37913 ft | 425 kts | 187° |
| 2026-05-05 00:22 | 47.79312 | 2.06666 | 37912 ft | 425 kts | 187° |
| 2026-05-05 00:23 | 47.73443 | 2.05553 | 37898 ft | 425 kts | 187° |
| 2026-05-05 00:23 | 47.67572 | 2.04440 | 37897 ft | 425 kts | 188° |
| 2026-05-05 00:24 | 47.61797 | 2.02621 | 37893 ft | 425 kts | 197° |
| 2026-05-05 00:24 | 47.56259 | 1.99577 | 37885 ft | 425 kts | 201° |
| 2026-05-05 00:25 | 47.50764 | 1.96354 | 37884 ft | 425 kts | 201° |
| 2026-05-05 00:25 | 47.45264 | 1.93166 | 37888 ft | 425 kts | 201° |
| 2026-05-05 00:26 | 47.39758 | 1.89990 | 37884 ft | 425 kts | 201° |
| 2026-05-05 00:26 | 47.34250 | 1.86820 | 37890 ft | 425 kts | 201° |
| 2026-05-05 00:27 | 47.28748 | 1.83660 | 37887 ft | 425 kts | 201° |
| 2026-05-05 00:27 | 47.23273 | 1.80523 | 37877 ft | 425 kts | 201° |
| 2026-05-05 00:28 | 47.17759 | 1.77380 | 37886 ft | 425 kts | 201° |
| 2026-05-05 00:28 | 47.12232 | 1.74269 | 37884 ft | 425 kts | 201° |
| 2026-05-05 00:29 | 47.06708 | 1.71164 | 37883 ft | 426 kts | 201° |
| 2026-05-05 00:29 | 47.01171 | 1.68056 | 37878 ft | 426 kts | 201° |
| 2026-05-05 00:30 | 46.95634 | 1.64954 | 37880 ft | 426 kts | 201° |
| 2026-05-05 00:30 | 46.90097 | 1.61859 | 37879 ft | 426 kts | 201° |
| 2026-05-05 00:31 | 46.84556 | 1.58770 | 37885 ft | 426 kts | 201° |
| 2026-05-05 00:31 | 46.79012 | 1.55686 | 37887 ft | 426 kts | 201° |
| 2026-05-05 00:32 | 46.73467 | 1.52608 | 37894 ft | 426 kts | 201° |
| 2026-05-05 00:32 | 46.67919 | 1.49535 | 37901 ft | 426 kts | 201° |
| 2026-05-05 00:33 | 46.62411 | 1.46490 | 37913 ft | 426 kts | 201° |
| 2026-05-05 00:33 | 46.56891 | 1.43446 | 37902 ft | 423 kts | 201° |
| 2026-05-05 00:34 | 46.51393 | 1.40420 | 37905 ft | 422 kts | 201° |
| 2026-05-05 00:34 | 46.45897 | 1.37402 | 37901 ft | 422 kts | 201° |
| 2026-05-05 00:35 | 46.40411 | 1.34396 | 37902 ft | 421 kts | 201° |
| 2026-05-05 00:35 | 46.34937 | 1.31403 | 37899 ft | 420 kts | 201° |
| 2026-05-05 00:36 | 46.29477 | 1.28423 | 37896 ft | 418 kts | 201° |
| 2026-05-05 00:36 | 46.24037 | 1.25461 | 37894 ft | 417 kts | 201° |
| 2026-05-05 00:37 | 46.18637 | 1.22527 | 37892 ft | 417 kts | 201° |
| 2026-05-05 00:37 | 46.13208 | 1.19584 | 37889 ft | 416 kts | 201° |
| 2026-05-05 00:38 | 46.07783 | 1.16648 | 37893 ft | 416 kts | 201° |
| 2026-05-05 00:38 | 46.02359 | 1.13720 | 37891 ft | 416 kts | 201° |
| 2026-05-05 00:39 | 45.96939 | 1.10800 | 37892 ft | 416 kts | 201° |
| 2026-05-05 00:39 | 45.91502 | 1.07877 | 37893 ft | 417 kts | 201° |
| 2026-05-05 00:40 | 45.86071 | 1.04930 | 37895 ft | 417 kts | 203° |
| 2026-05-05 00:40 | 45.80906 | 1.01143 | 37903 ft | 418 kts | 212° |
| 2026-05-05 00:41 | 45.76221 | 0.96202 | 37903 ft | 419 kts | 219° |
| 2026-05-05 00:41 | 45.71766 | 0.90805 | 37913 ft | 420 kts | 219° |
| 2026-05-05 00:42 | 45.67283 | 0.85430 | 37925 ft | 421 kts | 219° |
| 2026-05-05 00:42 | 45.62787 | 0.80070 | 37938 ft | 421 kts | 219° |
| 2026-05-05 00:43 | 45.58277 | 0.74705 | 37939 ft | 422 kts | 219° |
| 2026-05-05 00:43 | 45.53768 | 0.69353 | 37937 ft | 420 kts | 219° |
| 2026-05-05 00:44 | 45.49280 | 0.64037 | 37940 ft | 420 kts | 219° |
| 2026-05-05 00:44 | 45.44779 | 0.58718 | 37940 ft | 420 kts | 219° |
| 2026-05-05 00:45 | 45.40282 | 0.53415 | 37945 ft | 420 kts | 218° |
| 2026-05-05 00:45 | 45.35806 | 0.48147 | 37946 ft | 420 kts | 218° |
| 2026-05-05 00:46 | 45.31298 | 0.42853 | 37947 ft | 420 kts | 218° |
| 2026-05-05 00:46 | 45.26794 | 0.37576 | 37953 ft | 420 kts | 218° |
| 2026-05-05 00:47 | 45.22284 | 0.32302 | 37948 ft | 420 kts | 218° |
| 2026-05-05 00:47 | 45.17770 | 0.27035 | 37954 ft | 420 kts | 218° |
| 2026-05-05 00:48 | 45.13250 | 0.21773 | 37952 ft | 420 kts | 218° |
| 2026-05-05 00:48 | 45.08724 | 0.16513 | 37951 ft | 421 kts | 218° |
| 2026-05-05 00:49 | 45.04955 | 0.12143 | 37953 ft | 421 kts | 218° |
| 2026-05-05 00:49 | 44.99687 | 0.06047 | 37957 ft | 421 kts | 218° |
| 2026-05-05 00:50 | 44.95144 | 0.00802 | 37961 ft | 422 kts | 218° |
| 2026-05-05 00:50 | 44.90596 | -0.04437 | 37961 ft | 422 kts | 218° |
| 2026-05-05 00:51 | 44.86036 | -0.09679 | 37962 ft | 423 kts | 218° |
| 2026-05-05 00:51 | 44.81471 | -0.14916 | 37961 ft | 423 kts | 218° |
| 2026-05-05 00:52 | 44.77673 | -0.19265 | 37966 ft | 424 kts | 218° |
| 2026-05-05 00:52 | 44.73090 | -0.24502 | 37972 ft | 424 kts | 218° |
| 2026-05-05 00:53 | 44.68499 | -0.29739 | 37978 ft | 425 kts | 218° |
| 2026-05-05 00:53 | 44.63848 | -0.34871 | 37980 ft | 426 kts | 214° |
| 2026-05-05 00:54 | 44.58957 | -0.39570 | 37982 ft | 426 kts | 214° |
| 2026-05-05 00:54 | 44.54075 | -0.44262 | 37990 ft | 426 kts | 214° |
| 2026-05-05 00:55 | 44.49182 | -0.48961 | 37989 ft | 426 kts | 214° |
| 2026-05-05 00:55 | 44.44289 | -0.53650 | 37992 ft | 426 kts | 214° |
| 2026-05-05 00:56 | 44.39396 | -0.58329 | 37991 ft | 426 kts | 214° |
| 2026-05-05 00:56 | 44.34501 | -0.63000 | 37993 ft | 426 kts | 214° |
| 2026-05-05 00:57 | 44.29610 | -0.67658 | 37987 ft | 425 kts | 214° |
| 2026-05-05 00:57 | 44.24707 | -0.72272 | 37986 ft | 425 kts | 214° |
| 2026-05-05 00:58 | 44.19793 | -0.76773 | 37982 ft | 425 kts | 214° |
| 2026-05-05 00:58 | 44.14856 | -0.81295 | 37987 ft | 424 kts | 214° |
| 2026-05-05 00:59 | 44.09928 | -0.85812 | 37987 ft | 424 kts | 214° |
| 2026-05-05 00:59 | 44.04996 | -0.90326 | 37981 ft | 424 kts | 214° |
| 2026-05-05 01:00 | 44.00073 | -0.94822 | 37977 ft | 423 kts | 214° |
| 2026-05-05 01:00 | 43.95146 | -0.99313 | 37985 ft | 423 kts | 214° |
| 2026-05-05 01:01 | 43.90215 | -1.03798 | 37991 ft | 423 kts | 214° |
| 2026-05-05 01:01 | 43.85327 | -1.08235 | 37986 ft | 423 kts | 214° |
| 2026-05-05 01:02 | 43.80408 | -1.12692 | 37990 ft | 423 kts | 214° |
| 2026-05-05 01:02 | 43.75487 | -1.17142 | 37990 ft | 423 kts | 214° |
| 2026-05-05 01:03 | 43.70560 | -1.21588 | 37989 ft | 422 kts | 214° |
| 2026-05-05 01:03 | 43.65638 | -1.26021 | 37997 ft | 422 kts | 214° |
| 2026-05-05 01:04 | 43.60714 | -1.30448 | 37999 ft | 422 kts | 214° |
| 2026-05-05 01:04 | 43.53338 | -1.37060 | 38021 ft | 421 kts | 214° |
| 2026-05-05 01:05 | 43.48422 | -1.41458 | 38025 ft | 421 kts | 214° |
| 2026-05-05 01:05 | 43.43530 | -1.45824 | 38022 ft | 421 kts | 214° |
| 2026-05-05 01:06 | 43.38615 | -1.50204 | 38024 ft | 421 kts | 214° |
| 2026-05-05 01:06 | 43.33705 | -1.54568 | 38025 ft | 420 kts | 214° |
| 2026-05-05 01:07 | 43.28704 | -1.58734 | 38020 ft | 421 kts | 208° |
| 2026-05-05 01:07 | 43.23220 | -1.61605 | 38020 ft | 424 kts | 198° |
| 2026-05-05 01:08 | 43.17386 | -1.62973 | 38021 ft | 427 kts | 190° |
| 2026-05-05 01:08 | 43.11501 | -1.63924 | 38019 ft | 426 kts | 190° |
| 2026-05-05 01:09 | 43.05609 | -1.64896 | 38020 ft | 425 kts | 190° |
| 2026-05-05 01:09 | 42.99774 | -1.65861 | 38021 ft | 425 kts | 190° |
| 2026-05-05 01:10 | 42.93903 | -1.66828 | 38015 ft | 425 kts | 191° |
| 2026-05-05 01:10 | 42.88026 | -1.67793 | 38015 ft | 425 kts | 191° |
| 2026-05-05 01:11 | 42.82154 | -1.68757 | 38018 ft | 425 kts | 191° |
| 2026-05-05 01:11 | 42.76304 | -1.69920 | 38017 ft | 423 kts | 196° |
| 2026-05-05 01:12 | 42.70695 | -1.72183 | 38014 ft | 419 kts | 204° |
| 2026-05-05 01:12 | 42.65418 | -1.75509 | 38015 ft | 418 kts | 209° |
| 2026-05-05 01:13 | 42.60215 | -1.79043 | 38012 ft | 419 kts | 209° |
| 2026-05-05 01:13 | 42.54995 | -1.82551 | 38022 ft | 419 kts | 209° |
| 2026-05-05 01:14 | 42.49766 | -1.86052 | 38016 ft | 419 kts | 209° |
| 2026-05-05 01:14 | 42.44538 | -1.89546 | 38013 ft | 419 kts | 209° |
| 2026-05-05 01:15 | 42.39305 | -1.93037 | 38010 ft | 420 kts | 209° |
| 2026-05-05 01:15 | 42.34062 | -1.96527 | 38008 ft | 420 kts | 209° |
| 2026-05-05 01:16 | 42.28827 | -2.00006 | 38010 ft | 419 kts | 209° |
| 2026-05-05 01:16 | 42.23588 | -2.03479 | 38009 ft | 419 kts | 209° |
| 2026-05-05 01:17 | 42.18355 | -2.06944 | 38003 ft | 419 kts | 209° |
| 2026-05-05 01:17 | 42.13154 | -2.10380 | 38008 ft | 419 kts | 209° |
| 2026-05-05 01:18 | 42.07914 | -2.13837 | 38003 ft | 419 kts | 209° |
| 2026-05-05 01:18 | 42.02684 | -2.17280 | 38010 ft | 418 kts | 209° |
| 2026-05-05 01:19 | 41.97533 | -2.20665 | 38001 ft | 418 kts | 209° |
| 2026-05-05 01:19 | 41.93125 | -2.23556 | 38005 ft | 418 kts | 209° |
| 2026-05-05 01:20 | 41.87899 | -2.26978 | 38009 ft | 418 kts | 209° |
| 2026-05-05 01:20 | 41.82675 | -2.30393 | 38013 ft | 418 kts | 210° |
| 2026-05-05 01:21 | 41.77448 | -2.33804 | 38019 ft | 418 kts | 210° |
| 2026-05-05 01:21 | 41.72217 | -2.37211 | 38016 ft | 417 kts | 210° |
| 2026-05-05 01:22 | 41.66997 | -2.40605 | 38017 ft | 417 kts | 210° |
| 2026-05-05 01:22 | 41.61767 | -2.43999 | 38007 ft | 417 kts | 210° |
| 2026-05-05 01:23 | 41.56552 | -2.47378 | 38011 ft | 417 kts | 210° |
| 2026-05-05 01:23 | 41.51336 | -2.50750 | 38012 ft | 416 kts | 210° |
| 2026-05-05 01:24 | 41.46123 | -2.54115 | 38006 ft | 416 kts | 210° |
| 2026-05-05 01:24 | 41.40913 | -2.57470 | 38007 ft | 416 kts | 210° |
| 2026-05-05 01:25 | 41.35703 | -2.60819 | 38010 ft | 416 kts | 210° |
| 2026-05-05 01:25 | 41.30663 | -2.64505 | 38009 ft | 411 kts | 217° |
| 2026-05-05 01:26 | 41.25971 | -2.68837 | 38009 ft | 410 kts | 219° |
| 2026-05-05 01:26 | 41.21315 | -2.73139 | 38012 ft | 410 kts | 219° |
| 2026-05-05 01:27 | 41.16626 | -2.77448 | 38012 ft | 409 kts | 219° |
| 2026-05-05 01:27 | 41.11913 | -2.81769 | 38015 ft | 409 kts | 219° |
| 2026-05-05 01:28 | 41.07246 | -2.86040 | 38007 ft | 406 kts | 219° |
| 2026-05-05 01:28 | 41.02623 | -2.90265 | 37994 ft | 406 kts | 219° |
| 2026-05-05 01:29 | 40.97970 | -2.94510 | 37998 ft | 406 kts | 219° |
| 2026-05-05 01:29 | 40.93320 | -2.98744 | 37995 ft | 405 kts | 219° |
| 2026-05-05 01:30 | 40.88670 | -3.02971 | 38000 ft | 405 kts | 219° |
| 2026-05-05 01:30 | 40.84016 | -3.07194 | 37997 ft | 405 kts | 219° |
| 2026-05-05 01:31 | 40.79364 | -3.11409 | 37998 ft | 406 kts | 219° |
| 2026-05-05 01:31 | 40.74712 | -3.15616 | 38001 ft | 405 kts | 219° |
| 2026-05-05 01:32 | 40.69995 | -3.19874 | 37999 ft | 405 kts | 219° |
| 2026-05-05 01:32 | 40.65347 | -3.24061 | 37998 ft | 405 kts | 219° |
| 2026-05-05 01:33 | 40.61487 | -3.27534 | 38001 ft | 404 kts | 219° |
| 2026-05-05 01:33 | 40.56055 | -3.32413 | 37992 ft | 404 kts | 219° |
| 2026-05-05 01:34 | 40.51419 | -3.36569 | 37994 ft | 404 kts | 219° |
| 2026-05-05 01:34 | 40.47555 | -3.40028 | 37988 ft | 404 kts | 219° |
| 2026-05-05 01:35 | 40.42158 | -3.44851 | 37998 ft | 403 kts | 219° |
| 2026-05-05 01:35 | 40.38262 | -3.48327 | 37988 ft | 403 kts | 219° |
| 2026-05-05 01:36 | 40.33634 | -3.52449 | 37984 ft | 403 kts | 219° |
| 2026-05-05 01:36 | 40.28983 | -3.56584 | 37998 ft | 403 kts | 219° |
| 2026-05-05 01:37 | 40.24337 | -3.60709 | 37985 ft | 403 kts | 219° |
| 2026-05-05 01:37 | 40.19695 | -3.64822 | 37984 ft | 403 kts | 219° |
| 2026-05-05 01:38 | 40.15043 | -3.68938 | 37989 ft | 403 kts | 219° |
| 2026-05-05 01:38 | 40.10396 | -3.73044 | 37990 ft | 403 kts | 219° |
| 2026-05-05 01:39 | 40.05752 | -3.77137 | 37989 ft | 403 kts | 219° |
| 2026-05-05 01:39 | 40.01102 | -3.81229 | 37993 ft | 403 kts | 219° |
| 2026-05-05 01:40 | 39.96447 | -3.85319 | 37996 ft | 403 kts | 219° |
| 2026-05-05 01:40 | 39.91799 | -3.89397 | 38004 ft | 403 kts | 219° |
| 2026-05-05 01:41 | 39.87177 | -3.93445 | 38009 ft | 402 kts | 219° |
| 2026-05-05 01:41 | 39.82535 | -3.97503 | 37994 ft | 401 kts | 219° |
| 2026-05-05 01:42 | 39.77908 | -4.01542 | 37999 ft | 401 kts | 220° |
| 2026-05-05 01:42 | 39.73275 | -4.05581 | 37999 ft | 401 kts | 220° |
| 2026-05-05 01:43 | 39.68649 | -4.09605 | 38000 ft | 400 kts | 220° |
| 2026-05-05 01:43 | 39.64020 | -4.13626 | 37999 ft | 400 kts | 220° |
| 2026-05-05 01:44 | 39.59421 | -4.17614 | 38006 ft | 400 kts | 220° |
| 2026-05-05 01:44 | 39.54789 | -4.21625 | 38002 ft | 400 kts | 220° |
| 2026-05-05 01:45 | 39.50157 | -4.25628 | 37998 ft | 400 kts | 220° |
| 2026-05-05 01:45 | 39.45527 | -4.29623 | 38004 ft | 400 kts | 220° |
| 2026-05-05 01:46 | 39.40895 | -4.33614 | 38006 ft | 400 kts | 220° |
| 2026-05-05 01:46 | 39.36256 | -4.37605 | 38007 ft | 400 kts | 220° |
| 2026-05-05 01:47 | 39.31616 | -4.41589 | 38006 ft | 401 kts | 220° |
| 2026-05-05 01:47 | 39.26966 | -4.45567 | 38014 ft | 402 kts | 218° |
| 2026-05-05 01:48 | 39.21931 | -4.48868 | 38012 ft | 412 kts | 208° |
| 2026-05-05 01:48 | 39.16362 | -4.50932 | 38015 ft | 423 kts | 198° |
| 2026-05-05 01:49 | 39.10569 | -4.52125 | 38023 ft | 424 kts | 197° |
| 2026-05-05 01:49 | 39.04735 | -4.53345 | 38015 ft | 424 kts | 197° |
| 2026-05-05 01:50 | 38.98921 | -4.54564 | 37826 ft | 423 kts | 197° |
| 2026-05-05 01:50 | 38.96021 | -4.55171 | 37560 ft | 421 kts | 197° |
| 2026-05-05 01:50 | 38.93133 | -4.55774 | 37280 ft | 420 kts | 198° |
| 2026-05-05 01:51 | 38.90246 | -4.56378 | 37009 ft | 420 kts | 198° |
| 2026-05-05 01:51 | 38.87364 | -4.56980 | 36743 ft | 420 kts | 198° |
| 2026-05-05 01:51 | 38.84484 | -4.57581 | 36483 ft | 419 kts | 198° |
| 2026-05-05 01:51 | 38.81606 | -4.58182 | 36226 ft | 419 kts | 198° |
| 2026-05-05 01:52 | 38.78731 | -4.58780 | 35969 ft | 419 kts | 198° |
| 2026-05-05 01:52 | 38.75852 | -4.59379 | 35722 ft | 418 kts | 198° |
| 2026-05-05 01:52 | 38.73157 | -4.59939 | 35488 ft | 418 kts | 198° |
| 2026-05-05 01:53 | 38.70860 | -4.60415 | 35318 ft | 417 kts | 198° |
| 2026-05-05 01:53 | 38.67990 | -4.61011 | 35068 ft | 418 kts | 198° |
| 2026-05-05 01:53 | 38.65118 | -4.61607 | 34818 ft | 418 kts | 198° |
| 2026-05-05 01:53 | 38.62247 | -4.62202 | 34584 ft | 417 kts | 198° |
| 2026-05-05 01:54 | 38.59387 | -4.62793 | 34348 ft | 417 kts | 198° |
| 2026-05-05 01:54 | 38.56521 | -4.63386 | 34106 ft | 417 kts | 199° |
| 2026-05-05 01:54 | 38.53661 | -4.63977 | 33841 ft | 416 kts | 199° |
| 2026-05-05 01:54 | 38.50798 | -4.64570 | 33562 ft | 417 kts | 199° |
| 2026-05-05 01:55 | 38.47932 | -4.65163 | 33289 ft | 418 kts | 198° |
| 2026-05-05 01:55 | 38.45053 | -4.65758 | 33014 ft | 419 kts | 198° |
| 2026-05-05 01:55 | 38.42177 | -4.66351 | 32743 ft | 419 kts | 198° |
| 2026-05-05 01:55 | 38.39290 | -4.66947 | 32474 ft | 421 kts | 198° |
| 2026-05-05 01:56 | 38.36399 | -4.67542 | 32205 ft | 421 kts | 198° |
| 2026-05-05 01:56 | 38.33501 | -4.68138 | 31948 ft | 422 kts | 198° |
| 2026-05-05 01:56 | 38.30596 | -4.68734 | 31695 ft | 423 kts | 198° |
| 2026-05-05 01:56 | 38.27688 | -4.69330 | 31437 ft | 423 kts | 198° |
| 2026-05-05 01:57 | 38.24782 | -4.69927 | 31180 ft | 424 kts | 198° |
| 2026-05-05 01:57 | 38.21861 | -4.70526 | 30933 ft | 425 kts | 198° |
| 2026-05-05 01:57 | 38.18932 | -4.71125 | 30684 ft | 425 kts | 198° |
| 2026-05-05 01:57 | 38.16022 | -4.71721 | 30437 ft | 424 kts | 198° |
| 2026-05-05 01:58 | 38.13119 | -4.72313 | 30204 ft | 422 kts | 198° |
| 2026-05-05 01:58 | 38.10259 | -4.72898 | 30044 ft | 420 kts | 198° |
| 2026-05-05 01:58 | 38.04478 | -4.74081 | 30035 ft | 422 kts | 198° |
| 2026-05-05 01:59 | 37.98679 | -4.75264 | 30038 ft | 423 kts | 198° |
| 2026-05-05 01:59 | 37.92838 | -4.76450 | 30045 ft | 423 kts | 198° |
| 2026-05-05 02:00 | 37.87060 | -4.77624 | 29981 ft | 424 kts | 198° |
| 2026-05-05 02:00 | 37.84150 | -4.78215 | 29705 ft | 423 kts | 198° |
| 2026-05-05 02:00 | 37.81256 | -4.78800 | 29418 ft | 420 kts | 197° |
| 2026-05-05 02:01 | 37.78366 | -4.79385 | 29131 ft | 419 kts | 197° |
| 2026-05-05 02:01 | 37.75501 | -4.79966 | 28852 ft | 417 kts | 197° |
| 2026-05-05 02:01 | 37.72638 | -4.80546 | 28576 ft | 416 kts | 197° |
| 2026-05-05 02:01 | 37.69783 | -4.81124 | 28303 ft | 415 kts | 197° |
| 2026-05-05 02:02 | 37.66937 | -4.81699 | 28039 ft | 413 kts | 197° |
| 2026-05-05 02:02 | 37.64101 | -4.82271 | 27766 ft | 412 kts | 197° |
| 2026-05-05 02:02 | 37.61281 | -4.82841 | 27498 ft | 411 kts | 197° |
| 2026-05-05 02:02 | 37.58463 | -4.83409 | 27232 ft | 409 kts | 197° |
| 2026-05-05 02:03 | 37.55656 | -4.83974 | 26970 ft | 408 kts | 197° |
| 2026-05-05 02:03 | 37.52857 | -4.84538 | 26715 ft | 406 kts | 197° |
| 2026-05-05 02:03 | 37.50068 | -4.85099 | 26460 ft | 405 kts | 196° |
| 2026-05-05 02:03 | 37.47291 | -4.85658 | 26204 ft | 404 kts | 196° |
| 2026-05-05 02:04 | 37.44519 | -4.86215 | 25949 ft | 403 kts | 196° |
| 2026-05-05 02:04 | 37.41760 | -4.86768 | 25703 ft | 401 kts | 196° |
| 2026-05-05 02:04 | 37.39003 | -4.87321 | 25456 ft | 400 kts | 196° |
| 2026-05-05 02:04 | 37.36258 | -4.87871 | 25215 ft | 398 kts | 196° |
| 2026-05-05 02:05 | 37.33564 | -4.88411 | 24984 ft | 397 kts | 195° |
| 2026-05-05 02:05 | 37.30837 | -4.88957 | 24749 ft | 397 kts | 195° |
| 2026-05-05 02:05 | 37.28114 | -4.89501 | 24512 ft | 395 kts | 195° |
| 2026-05-05 02:05 | 37.25366 | -4.90050 | 24270 ft | 394 kts | 195° |
| 2026-05-05 02:06 | 37.22665 | -4.90589 | 24039 ft | 393 kts | 195° |
| 2026-05-05 02:06 | 37.20004 | -4.91120 | 23814 ft | 392 kts | 195° |
| 2026-05-05 02:06 | 37.17284 | -4.91662 | 23570 ft | 391 kts | 195° |
| 2026-05-05 02:06 | 37.14639 | -4.92188 | 23296 ft | 389 kts | 195° |
| 2026-05-05 02:07 | 37.11961 | -4.92720 | 23031 ft | 388 kts | 195° |
| 2026-05-05 02:07 | 37.09297 | -4.93249 | 22759 ft | 387 kts | 195° |
| 2026-05-05 02:07 | 37.06642 | -4.93751 | 22369 ft | 387 kts | 192° |
| 2026-05-05 02:07 | 37.03938 | -4.93933 | 21820 ft | 390 kts | 185° |
| 2026-05-05 02:08 | 37.01230 | -4.93794 | 21268 ft | 387 kts | 183° |
| 2026-05-05 02:08 | 36.98552 | -4.93642 | 20714 ft | 382 kts | 183° |
| 2026-05-05 02:08 | 36.95909 | -4.93498 | 20170 ft | 378 kts | 183° |
| 2026-05-05 02:08 | 36.93291 | -4.93359 | 19631 ft | 374 kts | 183° |
| 2026-05-05 02:09 | 36.90705 | -4.93226 | 19084 ft | 370 kts | 183° |
| 2026-05-05 02:09 | 36.88138 | -4.93090 | 18551 ft | 367 kts | 183° |
| 2026-05-05 02:09 | 36.85587 | -4.92958 | 17945 ft | 365 kts | 183° |
| 2026-05-05 02:09 | 36.83082 | -4.92829 | 17451 ft | 360 kts | 183° |
| 2026-05-05 02:10 | 36.80588 | -4.92702 | 16921 ft | 356 kts | 183° |
| 2026-05-05 02:10 | 36.78129 | -4.92577 | 16404 ft | 352 kts | 183° |
| 2026-05-05 02:10 | 36.75688 | -4.92452 | 15883 ft | 350 kts | 183° |
| 2026-05-05 02:10 | 36.73264 | -4.92329 | 15366 ft | 348 kts | 183° |
| 2026-05-05 02:11 | 36.70856 | -4.92205 | 14850 ft | 345 kts | 182° |
| 2026-05-05 02:11 | 36.68465 | -4.92082 | 14353 ft | 343 kts | 183° |
| 2026-05-05 02:11 | 36.66084 | -4.91960 | 13835 ft | 342 kts | 182° |
| 2026-05-05 02:11 | 36.63708 | -4.91839 | 13300 ft | 340 kts | 182° |
| 2026-05-05 02:12 | 36.61356 | -4.91716 | 12809 ft | 337 kts | 182° |
| 2026-05-05 02:12 | 36.56716 | -4.91475 | 11830 ft | 331 kts | 182° |
| 2026-05-05 02:12 | 36.54422 | -4.91358 | 11341 ft | 328 kts | 182° |
| 2026-05-05 02:13 | 36.52147 | -4.91244 | 10854 ft | 326 kts | 182° |
| 2026-05-05 02:13 | 36.49885 | -4.91129 | 10391 ft | 324 kts | 182° |
| 2026-05-05 02:13 | 36.47676 | -4.91014 | 10231 ft | 311 kts | 182° |
| 2026-05-05 02:13 | 36.45562 | -4.90901 | 10078 ft | 299 kts | 182° |
| 2026-05-05 02:14 | 36.43505 | -4.90795 | 9783 ft | 292 kts | 182° |
| 2026-05-05 02:14 | 36.41498 | -4.90694 | 9640 ft | 289 kts | 182° |
| 2026-05-05 02:14 | 36.39496 | -4.90597 | 9372 ft | 295 kts | 182° |
| 2026-05-05 02:14 | 36.37400 | -4.90495 | 8981 ft | 297 kts | 181° |
| 2026-05-05 02:15 | 36.35342 | -4.90392 | 8604 ft | 295 kts | 181° |
| 2026-05-05 02:15 | 36.33307 | -4.90287 | 8217 ft | 291 kts | 181° |
| 2026-05-05 02:15 | 36.31288 | -4.90182 | 7830 ft | 288 kts | 181° |
| 2026-05-05 02:15 | 36.29292 | -4.90080 | 7453 ft | 286 kts | 181° |
| 2026-05-05 02:16 | 36.27313 | -4.89979 | 7076 ft | 283 kts | 181° |
| 2026-05-05 02:16 | 36.25349 | -4.89879 | 6701 ft | 281 kts | 181° |
| 2026-05-05 02:16 | 36.23407 | -4.89780 | 6322 ft | 279 kts | 181° |
| 2026-05-05 02:16 | 36.21475 | -4.89682 | 5939 ft | 276 kts | 180° |
| 2026-05-05 02:17 | 36.19564 | -4.89584 | 5578 ft | 273 kts | 180° |
| 2026-05-05 02:17 | 36.17699 | -4.89799 | 5188 ft | 267 kts | 201° |
| 2026-05-05 02:17 | 36.16160 | -4.90987 | 4834 ft | 260 kts | 229° |
| 2026-05-05 02:17 | 36.15261 | -4.92873 | 4477 ft | 254 kts | 256° |
| 2026-05-05 02:18 | 36.15107 | -4.95017 | 4150 ft | 249 kts | 272° |
| 2026-05-05 02:18 | 36.15137 | -4.96422 | 4024 ft | 244 kts | 273° |
| 2026-05-05 02:18 | 36.15191 | -4.99300 | 3908 ft | 258 kts | 273° |
| 2026-05-05 02:18 | 36.15215 | -5.00776 | 3842 ft | 259 kts | 272° |
| 2026-05-05 02:19 | 36.15247 | -5.02980 | 3868 ft | 256 kts | 272° |
| 2026-05-05 02:19 | 36.15275 | -5.05182 | 3767 ft | 252 kts | 272° |
| 2026-05-05 02:19 | 36.15301 | -5.07319 | 3658 ft | 249 kts | 272° |
| 2026-05-05 02:19 | 36.15327 | -5.09487 | 3570 ft | 254 kts | 272° |
| 2026-05-05 02:20 | 36.15352 | -5.11670 | 3472 ft | 252 kts | 272° |
| 2026-05-05 02:20 | 36.15380 | -5.13832 | 3377 ft | 252 kts | 273° |
| 2026-05-05 02:20 | 36.15409 | -5.16004 | 3273 ft | 245 kts | 273° |
| 2026-05-05 02:20 | 36.15431 | -5.17990 | 3157 ft | 217 kts | 272° |
| 2026-05-05 02:21 | 36.15448 | -5.19762 | 3034 ft | 197 kts | 273° |
| 2026-05-05 02:21 | 36.15469 | -5.21487 | 2945 ft | 206 kts | 273° |
| 2026-05-05 02:21 | 36.15492 | -5.23261 | 2838 ft | 204 kts | 272° |
| 2026-05-05 02:21 | 36.15457 | -5.24965 | 2740 ft | 185 kts | 269° |
| 2026-05-05 02:22 | 36.15398 | -5.26452 | 2556 ft | 165 kts | 270° |
| 2026-05-05 02:22 | 36.15351 | -5.27852 | 2116 ft | 163 kts | 271° |
| 2026-05-05 02:22 | 36.15307 | -5.29251 | 1625 ft | 162 kts | 271° |
| 2026-05-05 02:22 | 36.15267 | -5.30640 | 1129 ft | 160 kts | 269° |
| 2026-05-05 02:23 | 36.15234 | -5.32003 | 707 ft | 154 kts | 268° |
| 2026-05-05 02:23 | 36.15171 | -5.33276 | 303 ft | 145 kts | 266° |
| 2026-05-05 02:23 | 36.15137 | -5.34480 | 22 ft | 132 kts | 269° |
| 2026-05-05 02:23 | 36.15103 | -5.35417 | 21 ft | 83 kts | 271° |
| 2026-05-05 02:24 | 36.15091 | -5.35798 | 19 ft | 1 kts | 270° |
| 2026-05-05 02:24 | 36.15091 | -5.35844 | 19 ft | 8 kts | 271° |
| 2026-05-05 02:24 | 36.15095 | -5.35924 | 18 ft | 10 kts | 258° |
| 2026-05-05 02:24 | 36.15072 | -5.35931 | 20 ft | 3 kts | 137° |
| 2026-05-05 02:25 | 36.15076 | -5.35868 | 22 ft | 12 kts | 62° |
| 2026-05-05 02:25 | 36.15098 | -5.35749 | 19 ft | 17 kts | 86° |
| 2026-05-05 02:25 | 36.15103 | -5.35588 | 19 ft | 20 kts | 87° |
| 2026-05-05 02:25 | 36.15110 | -5.35403 | 21 ft | 23 kts | 87° |
| 2026-05-05 02:26 | 36.15118 | -5.35195 | 22 ft | 25 kts | 88° |
| 2026-05-05 02:26 | 36.15124 | -5.35006 | 21 ft | 20 kts | 89° |
| 2026-05-05 02:26 | 36.15126 | -5.34821 | 24 ft | 20 kts | 88° |
| 2026-05-05 02:26 | 36.15136 | -5.34715 | 20 ft | 0 kts | 67° |
| 2026-05-05 02:27 | 36.15152 | -5.34691 | 22 ft | 10 kts | 39° |
| 2026-05-05 02:27 | 36.15196 | -5.34675 | 20 ft | 0 kts | 5° |
| 2026-05-05 02:28 | 36.15209 | -5.34672 | 20 ft | 7 kts | 13° |
| 2026-05-05 02:28 | 36.15272 | -5.34666 | 18 ft | 7 kts | 358° |
| 2026-05-05 02:28 | 36.15297 | -5.34668 | 17 ft | 1 kts | 358° |
| 2026-05-05 02:28 | 36.15308 | -5.34668 | 17 ft | 0 kts | 358° |